Time;durP1;ratioP1;P1;durP2;ratioP2;P2;SDS_P1;SDS_P2;PMS_P1;PMS_P2;Temp;Humidity;BMP_temperature;BMP_pressure;BME280_temperature;BME280_humidity;BME280_pressure;Samples;Min_cycle;Max_cycle;Signal;HPM_P1;HPM_P2
2023/09/29 00:00:41;;;;;;;13.98;6.63;;;16.40;99.90;;;;;;5079412;28;20514;-66
2023/09/29 00:03:08;;;;;;;11.98;6.63;;;16.30;99.90;;;;;;5072494;28;20382;-65
2023/09/29 00:05:34;;;;;;;12.48;7.63;;;16.40;99.90;;;;;;5076979;28;20059;-65
2023/09/29 00:08:00;;;;;;;11.32;6.45;;;16.40;99.90;;;;;;5074824;28;21303;-64
2023/09/29 00:10:25;;;;;;;10.20;6.88;;;16.40;99.90;;;;;;5074595;28;20059;-64
2023/09/29 00:12:51;;;;;;;10.27;6.93;;;16.40;99.90;;;;;;5074503;28;20029;-65
2023/09/29 00:15:18;;;;;;;8.95;6.30;;;16.40;99.90;;;;;;5076150;28;20043;-66
2023/09/29 00:17:45;;;;;;;12.60;6.85;;;16.40;99.90;;;;;;5067565;28;20047;-64
2023/09/29 00:20:33;;;;;;;14.98;6.93;;;16.40;99.90;;;;;;5073380;28;20413;-65
2023/09/29 00:22:59;;;;;;;10.27;6.28;;;16.40;99.90;;;;;;5073982;28;20421;-65
2023/09/29 00:25:25;;;;;;;9.93;5.75;;;16.40;99.90;;;;;;5074659;28;20040;-66
2023/09/29 00:27:52;;;;;;;8.43;4.97;;;16.40;99.90;;;;;;5072022;28;20043;-65
2023/09/29 00:30:18;;;;;;;10.57;6.28;;;16.40;99.90;;;;;;5075989;28;20047;-64
2023/09/29 00:32:51;;;;;;;11.93;6.43;;;16.40;99.90;;;;;;5077060;28;20107;-63
2023/09/29 00:35:24;;;;;;;10.20;6.03;;;16.40;99.90;;;;;;5074540;28;20035;-65
2023/09/29 00:37:56;;;;;;;8.70;5.00;;;16.50;99.90;;;;;;5073975;28;20874;-65
2023/09/29 00:40:23;;;;;;;12.10;5.97;;;16.50;99.90;;;;;;5075277;28;20093;-66
2023/09/29 00:42:52;;;;;;;9.63;5.78;;;16.50;99.90;;;;;;5072678;28;20040;-65
2023/09/29 00:45:22;;;;;;;8.65;5.60;;;16.50;99.90;;;;;;5075109;28;20689;-65
2023/09/29 00:47:55;;;;;;;9.48;5.40;;;16.50;99.90;;;;;;5077339;28;20531;-65
2023/09/29 00:50:23;;;;;;;10.32;6.07;;;16.60;99.90;;;;;;5073742;28;20041;-66
2023/09/29 00:52:52;;;;;;;14.48;5.95;;;16.60;99.90;;;;;;5074761;28;20128;-66
2023/09/29 00:55:24;;;;;;;10.10;5.95;;;16.50;99.90;;;;;;5074996;28;20028;-66
2023/09/29 00:57:51;;;;;;;8.48;5.03;;;16.50;99.90;;;;;;5074857;28;20028;-65
2023/09/29 01:03:08;;;;;;;8.73;5.53;;;16.40;99.90;;;;;;5073986;28;20067;-65
2023/09/29 01:05:38;;;;;;;11.50;5.40;;;16.40;99.90;;;;;;5057849;28;20029;-64
2023/09/29 01:08:08;;;;;;;7.78;5.65;;;16.30;99.90;;;;;;5073873;28;20078;-66
2023/09/29 01:10:38;;;;;;;14.52;6.15;;;16.30;99.90;;;;;;5072620;28;20025;-65
2023/09/29 01:13:04;;;;;;;10.15;5.72;;;16.30;99.90;;;;;;5074764;28;20570;-65
2023/09/29 01:15:32;;;;;;;9.73;5.57;;;16.30;99.90;;;;;;5074063;28;20039;-66
2023/09/29 01:17:57;;;;;;;12.57;6.15;;;16.30;99.90;;;;;;5072916;28;20044;-65
2023/09/29 01:20:29;;;;;;;9.00;5.97;;;16.30;99.90;;;;;;5055552;28;20048;-66
2023/09/29 01:22:58;;;;;;;9.90;5.63;;;16.20;99.90;;;;;;5074920;28;20035;-66
2023/09/29 01:25:24;;;;;;;9.07;5.38;;;16.30;99.90;;;;;;5078556;28;20089;-65
2023/09/29 01:27:50;;;;;;;7.97;5.47;;;16.20;99.90;;;;;;5079338;28;20020;-62
2023/09/29 01:30:18;;;;;;;7.13;5.50;;;16.30;99.90;;;;;;5076831;28;20032;-65
2023/09/29 01:32:47;;;;;;;7.35;5.85;;;16.20;99.90;;;;;;5077706;28;20037;-65
2023/09/29 01:35:16;;;;;;;9.93;6.00;;;16.30;99.90;;;;;;5061285;28;20044;-65
2023/09/29 01:37:44;;;;;;;9.40;5.57;;;16.30;99.90;;;;;;5078124;28;20035;-65
2023/09/29 01:40:10;;;;;;;9.90;5.55;;;16.40;99.90;;;;;;5076189;28;20063;-64
2023/09/29 01:42:36;;;;;;;10.88;5.28;;;16.30;99.90;;;;;;5080819;28;20043;-64
2023/09/29 01:45:05;;;;;;;7.72;5.38;;;16.40;99.90;;;;;;5080056;28;20028;-66
2023/09/29 01:47:31;;;;;;;7.95;5.00;;;16.40;99.90;;;;;;5078653;28;20511;-65
2023/09/29 01:49:57;;;;;;;8.30;5.57;;;16.40;99.90;;;;;;5078799;28;20032;-66
2023/09/29 01:52:22;;;;;;;10.93;5.32;;;16.40;99.90;;;;;;5075276;28;20043;-65
2023/09/29 01:54:49;;;;;;;8.32;4.60;;;16.40;99.90;;;;;;5076643;28;20039;-64
2023/09/29 01:57:15;;;;;;;7.97;5.25;;;16.40;99.90;;;;;;5080895;28;20041;-65
2023/09/29 01:59:41;;;;;;;10.13;5.18;;;16.50;99.90;;;;;;5056985;28;20076;-65
2023/09/29 02:02:06;;;;;;;9.85;5.00;;;16.50;99.90;;;;;;5078543;28;20047;-65
2023/09/29 02:04:32;;;;;;;11.35;5.10;;;16.50;99.90;;;;;;5077927;28;20021;-66
2023/09/29 02:06:58;;;;;;;7.13;5.35;;;16.50;99.90;;;;;;5074792;28;20074;-64
2023/09/29 02:09:24;;;;;;;10.23;4.97;;;16.50;99.90;;;;;;5076962;28;20016;-65
2023/09/29 02:11:49;;;;;;;6.38;4.72;;;16.40;99.90;;;;;;5076814;28;20159;-62
2023/09/29 02:14:15;;;;;;;7.55;5.10;;;16.40;99.90;;;;;;5058885;28;20028;-64
2023/09/29 02:16:40;;;;;;;7.75;5.57;;;16.40;99.90;;;;;;5077759;28;20060;-65
2023/09/29 02:19:06;;;;;;;8.70;5.20;;;16.40;99.90;;;;;;5071566;28;20035;-65
2023/09/29 02:21:32;;;;;;;6.68;5.03;;;16.50;99.90;;;;;;5077344;28;20067;-65
2023/09/29 02:23:58;;;;;;;9.68;5.55;;;16.40;99.90;;;;;;5076503;28;20016;-65
2023/09/29 02:26:28;;;;;;;7.55;5.40;;;16.50;99.90;;;;;;5076489;28;20028;-65
2023/09/29 02:28:54;;;;;;;9.60;4.75;;;16.50;99.90;;;;;;5072176;28;20609;-64
2023/09/29 02:31:20;;;;;;;9.50;5.25;;;16.50;99.90;;;;;;5075244;28;20028;-65
2023/09/29 02:33:45;;;;;;;9.48;5.03;;;16.50;99.90;;;;;;5073702;28;20036;-64
2023/09/29 02:36:11;;;;;;;9.02;4.80;;;16.50;99.90;;;;;;5075944;28;20389;-64
2023/09/29 02:38:37;;;;;;;7.43;4.68;;;16.50;99.90;;;;;;5080374;28;20108;-63
2023/09/29 02:41:02;;;;;;;8.80;4.95;;;16.50;99.90;;;;;;5073132;28;20051;-63
2023/09/29 02:43:30;;;;;;;9.02;4.97;;;16.50;99.90;;;;;;5071629;28;20043;-63
2023/09/29 02:45:56;;;;;;;10.65;5.18;;;16.50;99.90;;;;;;5074058;28;20029;-66
2023/09/29 02:48:22;;;;;;;14.00;5.35;;;16.50;99.90;;;;;;5073497;28;20028;-63
2023/09/29 02:50:48;;;;;;;9.38;5.10;;;16.60;99.90;;;;;;5077450;28;20035;-66
2023/09/29 02:53:14;;;;;;;8.25;4.93;;;16.60;99.90;;;;;;5076518;28;20123;-67
2023/09/29 02:55:40;;;;;;;9.68;5.93;;;16.60;99.90;;;;;;5076003;28;20173;-63
2023/09/29 02:58:07;;;;;;;8.65;4.50;;;16.60;99.90;;;;;;5077266;28;20036;-64
2023/09/29 03:00:32;;;;;;;11.73;4.57;;;16.60;99.90;;;;;;5080214;28;20048;-67
2023/09/29 03:02:58;;;;;;;6.82;4.57;;;16.60;99.90;;;;;;5075930;28;20032;-65
2023/09/29 03:05:25;;;;;;;10.65;5.05;;;16.60;99.90;;;;;;5078356;28;20028;-65
2023/09/29 03:07:51;;;;;;;10.70;5.20;;;16.60;99.90;;;;;;5060674;28;20449;-65
2023/09/29 03:10:17;;;;;;;6.75;4.43;;;16.60;99.90;;;;;;5075791;28;20103;-65
2023/09/29 03:12:44;;;;;;;6.70;4.47;;;16.60;99.90;;;;;;5058446;28;20374;-66
2023/09/29 03:15:15;;;;;;;11.10;4.75;;;16.60;99.90;;;;;;5076440;28;20036;-62
2023/09/29 03:17:42;;;;;;;8.82;4.38;;;16.60;99.90;;;;;;5076519;28;20021;-66
2023/09/29 03:20:12;;;;;;;9.10;4.45;;;16.60;99.90;;;;;;5077085;28;20036;-64
2023/09/29 03:22:39;;;;;;;6.00;4.53;;;16.50;99.90;;;;;;5076296;28;20028;-63
2023/09/29 03:25:06;;;;;;;5.75;3.83;;;16.50;99.90;;;;;;5071571;28;20028;-66
2023/09/29 03:27:32;;;;;;;7.35;4.25;;;16.40;99.90;;;;;;5076141;28;20024;-65
2023/09/29 03:30:00;;;;;;;8.73;4.57;;;16.40;99.90;;;;;;5076677;28;20496;-66
2023/09/29 03:32:26;;;;;;;6.45;4.03;;;16.30;99.90;;;;;;5076233;28;20123;-64
2023/09/29 03:34:52;;;;;;;7.63;4.07;;;16.30;99.90;;;;;;5078108;28;20119;-66
2023/09/29 03:37:19;;;;;;;7.03;4.13;;;16.30;99.90;;;;;;5058630;28;20039;-65
2023/09/29 03:39:44;;;;;;;6.47;4.13;;;16.30;99.90;;;;;;5075634;28;20052;-65
2023/09/29 03:42:11;;;;;;;6.88;4.38;;;16.20;99.90;;;;;;5074688;28;20106;-62
2023/09/29 03:44:36;;;;;;;9.15;4.68;;;16.20;99.90;;;;;;5077125;28;20020;-65
2023/09/29 03:47:02;;;;;;;8.02;5.00;;;16.20;99.90;;;;;;5077906;28;20028;-66
2023/09/29 03:49:30;;;;;;;7.25;4.50;;;16.20;99.90;;;;;;5057044;28;20028;-66
2023/09/29 03:51:56;;;;;;;6.85;4.70;;;16.30;99.90;;;;;;5073020;28;20035;-64
2023/09/29 03:54:22;;;;;;;6.88;5.13;;;16.30;99.90;;;;;;5076228;28;20035;-66
2023/09/29 03:56:47;;;;;;;9.95;5.00;;;16.40;99.90;;;;;;5075306;28;20089;-65
2023/09/29 03:59:13;;;;;;;10.60;4.43;;;16.40;99.90;;;;;;5075082;28;20036;-63
2023/09/29 04:01:38;;;;;;;6.25;4.20;;;16.50;99.90;;;;;;5075158;28;20058;-64
2023/09/29 04:04:04;;;;;;;8.88;4.25;;;16.50;99.90;;;;;;5075039;28;20114;-63
2023/09/29 04:06:30;;;;;;;11.23;4.88;;;16.50;99.90;;;;;;5074427;28;20035;-64
2023/09/29 04:08:55;;;;;;;9.40;4.32;;;16.60;99.90;;;;;;5075505;28;20547;-65
2023/09/29 04:11:21;;;;;;;7.85;4.40;;;16.60;99.90;;;;;;5076602;28;20028;-65
2023/09/29 04:13:47;;;;;;;6.47;4.15;;;16.60;99.90;;;;;;5074526;28;20442;-64
2023/09/29 04:16:14;;;;;;;10.35;4.30;;;16.60;99.90;;;;;;5077231;28;20023;-66
2023/09/29 04:18:39;;;;;;;11.30;4.55;;;16.60;99.90;;;;;;5075921;28;20024;-65
2023/09/29 04:21:12;;;;;;;8.88;3.63;;;16.60;99.90;;;;;;5073959;28;20032;-65
2023/09/29 04:23:37;;;;;;;13.73;4.05;;;16.70;99.90;;;;;;5073787;28;20032;-63
2023/09/29 04:26:03;;;;;;;9.32;4.78;;;16.70;99.90;;;;;;5074779;28;20032;-59
2023/09/29 04:28:28;;;;;;;7.70;4.38;;;16.70;99.90;;;;;;5075604;28;20088;-63
2023/09/29 04:30:54;;;;;;;7.72;4.18;;;16.70;99.90;;;;;;5072050;28;20036;-64
2023/09/29 04:33:20;;;;;;;6.75;3.80;;;16.70;99.90;;;;;;5073840;28;20032;-65
2023/09/29 04:35:45;;;;;;;6.50;3.70;;;16.70;99.90;;;;;;5072867;28;20036;-65
2023/09/29 04:38:11;;;;;;;9.95;4.45;;;16.70;99.90;;;;;;5071000;28;20553;-64
2023/09/29 04:40:37;;;;;;;9.20;3.97;;;16.70;99.90;;;;;;5074177;28;20370;-64
2023/09/29 04:43:04;;;;;;;6.40;4.07;;;16.70;99.90;;;;;;5073527;28;20029;-65
2023/09/29 04:45:30;;;;;;;8.52;4.05;;;16.70;99.90;;;;;;5074389;28;21186;-65
2023/09/29 04:47:58;;;;;;;9.50;4.43;;;16.70;99.90;;;;;;5073990;28;20023;-65
2023/09/29 04:50:23;;;;;;;7.07;3.65;;;16.70;99.90;;;;;;5076129;28;20024;-66
2023/09/29 04:52:49;;;;;;;6.75;3.45;;;16.80;99.90;;;;;;5071943;28;20489;-65
2023/09/29 04:55:15;;;;;;;13.35;4.38;;;16.70;99.90;;;;;;5077864;28;20024;-64
2023/09/29 04:57:41;;;;;;;4.72;3.53;;;16.70;99.90;;;;;;5073685;28;20024;-66
2023/09/29 05:00:07;;;;;;;6.57;3.70;;;16.70;99.90;;;;;;5081499;28;20039;-66
2023/09/29 05:02:33;;;;;;;7.70;4.38;;;16.70;99.90;;;;;;5077045;28;20040;-65
2023/09/29 05:04:58;;;;;;;8.35;4.32;;;16.70;99.90;;;;;;5077931;28;20099;-65
2023/09/29 05:07:24;;;;;;;7.25;4.22;;;16.70;99.90;;;;;;5078980;28;20028;-66
2023/09/29 05:09:49;;;;;;;8.40;4.32;;;16.60;99.90;;;;;;5081648;28;20020;-64
2023/09/29 05:12:15;;;;;;;7.43;4.72;;;16.60;99.90;;;;;;5078200;28;20028;-65
2023/09/29 05:14:41;;;;;;;5.90;3.60;;;16.60;99.90;;;;;;5080788;28;20107;-64
2023/09/29 05:17:07;;;;;;;14.80;4.88;;;16.60;99.90;;;;;;5080855;28;20031;-64
2023/09/29 05:19:32;;;;;;;5.53;3.85;;;16.60;99.90;;;;;;5081051;28;20028;-65
2023/09/29 05:21:58;;;;;;;13.10;4.03;;;16.60;99.90;;;;;;5061601;28;20043;-65
2023/09/29 05:24:23;;;;;;;12.82;4.15;;;16.60;99.90;;;;;;5079578;28;20036;-66
2023/09/29 05:26:49;;;;;;;10.93;4.07;;;16.60;99.90;;;;;;5078835;28;20027;-65
2023/09/29 05:29:14;;;;;;;6.20;3.92;;;16.60;99.90;;;;;;5078595;28;20424;-62
2023/09/29 05:31:40;;;;;;;5.53;3.45;;;16.60;99.90;;;;;;5078723;28;20036;-63
2023/09/29 05:34:06;;;;;;;8.82;3.75;;;16.60;99.90;;;;;;5078216;28;20028;-65
2023/09/29 05:36:31;;;;;;;6.03;4.57;;;16.60;99.90;;;;;;5060841;28;20410;-65
2023/09/29 05:38:57;;;;;;;10.93;3.70;;;16.60;99.90;;;;;;5080146;28;20108;-64
2023/09/29 05:41:23;;;;;;;6.13;4.13;;;16.60;99.90;;;;;;5077331;28;20400;-63
2023/09/29 05:43:49;;;;;;;4.72;3.15;;;16.70;99.90;;;;;;5078318;28;21470;-65
2023/09/29 05:46:14;;;;;;;8.73;3.47;;;16.70;99.90;;;;;;5077756;28;20031;-65
2023/09/29 05:48:40;;;;;;;8.15;3.58;;;16.80;99.90;;;;;;5081964;28;20047;-67
2023/09/29 05:51:05;;;;;;;5.72;3.20;;;16.80;99.90;;;;;;5075769;28;20111;-66
2023/09/29 05:53:31;;;;;;;9.50;3.85;;;16.80;99.90;;;;;;5079813;28;20031;-65
2023/09/29 05:56:03;;;;;;;5.22;3.35;;;16.80;99.90;;;;;;5076790;28;20040;-64
2023/09/29 05:58:29;;;;;;;7.43;3.63;;;16.80;99.90;;;;;;5078369;28;20031;-66
2023/09/29 06:00:55;;;;;;;6.25;3.83;;;16.90;99.90;;;;;;5077415;28;20089;-62
2023/09/29 06:03:21;;;;;;;7.72;3.08;;;16.90;99.90;;;;;;5078166;28;20035;-66
2023/09/29 06:05:46;;;;;;;5.60;3.45;;;16.80;99.90;;;;;;5073413;28;20072;-65
2023/09/29 06:08:12;;;;;;;5.40;3.50;;;16.80;99.90;;;;;;5077302;28;20119;-64
2023/09/29 06:10:38;;;;;;;8.00;3.40;;;16.80;99.90;;;;;;5076219;28;20098;-66
2023/09/29 06:13:04;;;;;;;5.72;3.10;;;16.80;99.90;;;;;;5077473;28;20039;-65
2023/09/29 06:15:29;;;;;;;7.82;3.13;;;17.00;99.90;;;;;;5077484;28;20089;-65
2023/09/29 06:17:56;;;;;;;5.00;3.03;;;17.00;99.90;;;;;;5079300;28;20028;-65
2023/09/29 06:20:22;;;;;;;5.00;2.75;;;17.10;99.90;;;;;;5079536;28;20032;-65
2023/09/29 06:22:47;;;;;;;5.57;2.67;;;17.10;99.90;;;;;;5076370;28;20039;-67
2023/09/29 06:25:13;;;;;;;5.47;3.03;;;17.20;99.90;;;;;;5075515;28;20117;-65
2023/09/29 06:27:38;;;;;;;6.38;2.63;;;17.30;99.90;;;;;;5075109;28;20513;-66
2023/09/29 06:30:05;;;;;;;4.78;3.03;;;17.50;99.90;;;;;;5078092;28;20401;-62
2023/09/29 06:32:30;;;;;;;4.47;2.70;;;17.70;99.90;;;;;;5077145;28;20032;-63
2023/09/29 06:34:56;;;;;;;4.15;2.97;;;17.80;99.90;;;;;;5076185;28;20489;-66
2023/09/29 06:37:22;;;;;;;5.00;2.85;;;18.00;99.90;;;;;;5077741;28;20089;-64
2023/09/29 06:39:48;;;;;;;3.92;2.13;;;18.20;99.90;;;;;;5076443;28;20123;-65
2023/09/29 06:42:13;;;;;;;7.00;2.70;;;18.40;99.90;;;;;;5078266;28;20024;-65
2023/09/29 06:44:39;;;;;;;5.32;2.35;;;18.60;99.90;;;;;;5075284;28;20081;-65
2023/09/29 06:47:05;;;;;;;4.43;2.67;;;18.90;99.90;;;;;;5076452;28;20508;-65
2023/09/29 06:49:30;;;;;;;7.95;2.10;;;19.10;99.90;;;;;;5077290;28;20023;-64
2023/09/29 06:51:56;;;;;;;4.13;1.80;;;19.40;99.90;;;;;;5076012;28;20411;-64
2023/09/29 06:54:21;;;;;;;5.45;2.28;;;19.60;99.90;;;;;;5078174;28;20423;-65
2023/09/29 06:56:47;;;;;;;4.15;2.42;;;19.70;99.90;;;;;;5076641;28;20021;-66
2023/09/29 06:59:13;;;;;;;5.03;1.85;;;19.60;99.90;;;;;;5077133;28;20081;-64
2023/09/29 07:01:39;;;;;;;7.95;2.25;;;19.70;99.90;;;;;;5080192;28;20048;-65
2023/09/29 07:04:04;;;;;;;5.20;2.35;;;19.60;99.90;;;;;;5075878;28;20028;-67
2023/09/29 07:06:30;;;;;;;4.40;2.22;;;19.50;99.90;;;;;;5076417;28;20027;-66
2023/09/29 07:08:55;;;;;;;5.70;2.42;;;19.40;99.90;;;;;;5076783;28;20021;-64
2023/09/29 07:11:21;;;;;;;5.45;2.60;;;19.30;99.90;;;;;;5077709;28;20126;-66
2023/09/29 07:13:47;;;;;;;7.25;2.30;;;19.20;99.90;;;;;;5077842;28;20089;-65
2023/09/29 07:16:13;;;;;;;4.93;2.22;;;19.20;99.90;;;;;;5078865;28;20032;-66
2023/09/29 07:18:40;;;;;;;5.30;2.13;;;19.20;99.90;;;;;;5075686;28;20031;-65
2023/09/29 07:21:05;;;;;;;3.90;2.22;;;19.30;99.90;;;;;;5076873;28;20064;-62
2023/09/29 07:23:33;;;;;;;4.05;2.20;;;19.40;99.90;;;;;;5076816;28;20492;-65
2023/09/29 07:25:59;;;;;;;3.08;1.67;;;19.60;99.90;;;;;;5075667;28;20119;-64
2023/09/29 07:28:25;;;;;;;7.03;2.40;;;19.80;99.90;;;;;;5076439;28;20107;-62
2023/09/29 07:30:50;;;;;;;6.60;2.17;;;20.10;99.90;;;;;;5077275;28;20036;-66
2023/09/29 07:33:16;;;;;;;4.53;1.98;;;20.20;99.90;;;;;;5074982;28;20513;-65
2023/09/29 07:35:45;;;;;;;5.25;2.33;;;20.40;99.90;;;;;;5076817;28;20090;-64
2023/09/29 07:38:12;;;;;;;5.88;2.38;;;20.50;99.90;;;;;;5075132;28;20595;-65
2023/09/29 07:40:38;;;;;;;11.65;2.30;;;20.70;99.90;;;;;;5076493;28;20028;-65
2023/09/29 07:43:04;;;;;;;4.32;2.00;;;21.00;99.90;;;;;;5073897;28;20282;-65
2023/09/29 07:45:31;;;;;;;4.95;2.05;;;21.20;99.90;;;;;;5075608;28;20314;-65
2023/09/29 07:47:56;;;;;;;4.57;2.20;;;21.50;99.90;;;;;;5076484;28;20026;-65
2023/09/29 07:50:23;;;;;;;8.98;2.08;;;21.80;99.90;;;;;;5073943;28;20024;-65
2023/09/29 07:52:48;;;;;;;8.65;1.90;;;21.70;99.90;;;;;;5075493;28;20436;-60
2023/09/29 07:55:14;;;;;;;3.20;1.80;;;21.80;99.90;;;;;;5078992;28;20032;-65
2023/09/29 07:57:39;;;;;;;5.63;2.13;;;21.80;99.90;;;;;;5076850;28;20062;-68
2023/09/29 08:00:08;;;;;;;5.22;1.88;;;22.00;99.90;;;;;;5075650;28;20043;-64
2023/09/29 08:02:34;;;;;;;5.03;2.33;;;22.10;99.90;;;;;;5072405;28;20040;-66
2023/09/29 08:05:00;;;;;;;8.23;2.15;;;22.30;99.90;;;;;;5073489;28;20020;-66
2023/09/29 08:07:27;;;;;;;4.63;1.98;;;22.40;99.90;;;;;;5073144;28;20036;-65
2023/09/29 08:09:53;;;;;;;8.50;2.47;;;22.40;99.90;;;;;;5076723;28;20028;-63
2023/09/29 08:12:19;;;;;;;5.10;2.13;;;22.30;99.90;;;;;;5076150;28;20187;-65
2023/09/29 08:14:45;;;;;;;6.10;2.17;;;22.20;99.90;;;;;;5074595;28;20032;-65
2023/09/29 08:17:10;;;;;;;8.40;2.30;;;22.10;99.90;;;;;;5074208;28;20047;-65
2023/09/29 08:19:36;;;;;;;5.20;2.13;;;22.00;99.90;;;;;;5075522;28;20047;-66
2023/09/29 08:22:02;;;;;;;5.72;2.50;;;22.00;99.90;;;;;;5074268;28;20033;-65
2023/09/29 08:24:31;;;;;;;6.93;2.95;;;21.90;99.90;;;;;;5074375;28;20020;-63
2023/09/29 08:26:57;;;;;;;5.30;2.30;;;22.10;99.90;;;;;;5072900;28;20024;-65
2023/09/29 08:29:23;;;;;;;3.58;2.38;;;22.30;99.90;;;;;;5075055;28;20410;-65
2023/09/29 08:31:49;;;;;;;2.95;1.92;;;22.50;99.90;;;;;;5075245;28;20482;-63
2023/09/29 08:34:15;;;;;;;4.65;2.30;;;22.70;99.90;;;;;;5073680;28;20031;-65
2023/09/29 08:36:41;;;;;;;3.30;1.88;;;22.80;99.90;;;;;;5074999;28;20036;-66
2023/09/29 08:39:07;;;;;;;5.72;2.20;;;22.90;99.90;;;;;;5075123;28;20397;-66
2023/09/29 08:41:35;;;;;;;3.50;1.90;;;22.80;99.90;;;;;;5075403;28;20028;-64
2023/09/29 08:44:03;;;;;;;4.38;2.25;;;22.70;99.90;;;;;;5057777;28;20032;-65
2023/09/29 08:46:32;;;;;;;5.82;2.42;;;22.70;99.90;;;;;;5057749;28;20439;-65
2023/09/29 08:48:58;;;;;;;5.25;1.83;;;22.50;99.90;;;;;;5074284;28;20497;-66
2023/09/29 08:51:25;;;;;;;5.18;2.30;;;22.30;99.90;;;;;;5073532;28;20024;-66
2023/09/29 08:53:52;;;;;;;7.65;2.58;;;22.10;99.90;;;;;;5074135;28;20030;-67
2023/09/29 08:56:18;;;;;;;5.10;2.55;;;22.00;99.90;;;;;;5073320;28;20035;-67
2023/09/29 08:58:45;;;;;;;4.95;2.40;;;21.90;99.90;;;;;;5077036;28;20625;-65
2023/09/29 09:01:11;;;;;;;7.25;2.45;;;21.80;99.90;;;;;;5074642;28;20090;-65
2023/09/29 09:03:37;;;;;;;4.88;2.25;;;21.90;99.90;;;;;;5076073;28;20036;-66
2023/09/29 09:06:22;;;;;;;6.22;2.00;;;22.00;99.90;;;;;;5076315;28;20032;-63
2023/09/29 09:08:50;;;;;;;3.78;2.33;;;21.90;99.90;;;;;;5076132;28;20027;-65
2023/09/29 09:11:15;;;;;;;4.22;2.50;;;22.00;99.90;;;;;;5074323;28;20039;-66
2023/09/29 09:13:41;;;;;;;4.63;2.42;;;22.10;99.90;;;;;;5075445;28;20036;-67
2023/09/29 09:16:07;;;;;;;10.80;2.38;;;22.10;99.90;;;;;;5074553;28;20031;-63
2023/09/29 09:18:33;;;;;;;4.43;2.20;;;22.10;99.90;;;;;;5076611;28;20055;-65
2023/09/29 09:20:58;;;;;;;8.88;2.35;;;22.20;99.90;;;;;;5075135;28;20036;-64
2023/09/29 09:23:24;;;;;;;5.50;2.30;;;22.30;99.90;;;;;;5072715;28;20032;-67
2023/09/29 09:25:50;;;;;;;4.38;2.50;;;22.20;99.90;;;;;;5072002;28;20031;-63
2023/09/29 09:28:19;;;;;;;3.25;1.85;;;22.20;99.90;;;;;;5074993;28;20112;-65
2023/09/29 09:30:46;;;;;;;3.33;2.28;;;22.60;99.90;;;;;;5074293;28;20074;-64
2023/09/29 09:33:23;;;;;;;5.28;2.42;;;23.20;99.90;;;;;;5076665;28;20028;-67
2023/09/29 09:35:51;;;;;;;5.53;2.50;;;23.80;99.90;;;;;;5074918;28;20035;-67
2023/09/29 09:38:17;;;;;;;5.82;2.58;;;24.10;99.90;;;;;;5072375;28;20021;-64
2023/09/29 09:40:48;;;;;;;4.63;2.30;;;24.50;99.90;;;;;;5071979;28;20044;-67
2023/09/29 09:43:13;;;;;;;4.55;2.30;;;24.60;99.90;;;;;;5076482;28;20380;-66
2023/09/29 09:45:42;;;;;;;4.50;2.20;;;24.90;99.90;;;;;;5077886;28;20057;-66
2023/09/29 09:48:09;;;;;;;3.17;1.85;;;25.10;99.90;;;;;;5078610;28;20393;-63
2023/09/29 09:50:38;;;;;;;4.15;2.10;;;25.20;99.90;;;;;;5078181;28;20034;-67
2023/09/29 09:53:08;;;;;;;6.00;2.50;;;25.40;99.90;;;;;;5076485;28;20513;-66
2023/09/29 09:55:39;;;;;;;3.20;2.30;;;26.00;99.90;;;;;;5078500;28;20036;-65
2023/09/29 09:58:12;;;;;;;5.53;2.78;;;26.50;99.90;;;;;;5073167;28;20106;-63
2023/09/29 10:00:40;;;;;;;4.30;2.00;;;26.90;99.90;;;;;;5078436;28;20036;-66
2023/09/29 10:03:14;;;;;;;4.78;2.30;;;26.90;99.90;;;;;;5075236;28;20032;-66
2023/09/29 10:05:41;;;;;;;3.55;2.03;;;27.00;99.90;;;;;;5080760;28;20036;-67
2023/09/29 10:08:10;;;;;;;7.65;2.63;;;26.30;99.90;;;;;;5077867;28;20028;-58
2023/09/29 10:10:40;;;;;;;3.70;1.80;;;26.10;99.90;;;;;;5079152;28;20417;-66
2023/09/29 10:13:15;;;;;;;4.63;2.30;;;25.90;99.90;;;;;;5081471;28;20472;-68
2023/09/29 10:15:41;;;;;;;5.13;2.15;;;25.80;99.90;;;;;;5079167;28;20048;-64
2023/09/29 10:18:19;;;;;;;10.20;2.88;;;25.60;99.90;;;;;;5077669;28;20027;-62
2023/09/29 10:21:00;;;;;;;7.32;2.40;;;25.60;99.90;;;;;;5078072;28;20029;-66
2023/09/29 10:23:26;;;;;;;8.52;2.30;;;25.70;99.90;;;;;;5074077;28;20032;-66
2023/09/29 10:25:59;;;;;;;4.45;2.53;;;26.10;99.90;;;;;;5075717;28;20020;-66
2023/09/29 10:28:32;;;;;;;8.32;2.63;;;26.70;99.90;;;;;;5076487;28;20040;-65
2023/09/29 10:31:15;;;;;;;7.18;2.55;;;26.60;99.90;;;;;;5077989;28;20059;-65
2023/09/29 10:34:00;;;;;;;4.38;2.33;;;26.20;99.90;;;;;;5077424;28;20058;-68
2023/09/29 10:36:28;;;;;;;8.25;2.58;;;25.90;99.90;;;;;;5059629;28;20462;-65
2023/09/29 10:38:57;;;;;;;3.83;2.33;;;25.40;99.90;;;;;;5079122;28;20032;-66
2023/09/29 10:41:23;;;;;;;7.85;2.80;;;24.80;99.90;;;;;;5077470;28;20110;-66
2023/09/29 10:43:50;;;;;;;8.00;2.78;;;24.50;99.90;;;;;;5076235;28;20115;-65
2023/09/29 10:46:20;;;;;;;3.13;2.10;;;24.20;99.90;;;;;;5075540;28;20029;-66
2023/09/29 10:48:48;;;;;;;4.47;2.15;;;23.70;99.90;;;;;;5076358;28;20095;-65
2023/09/29 10:51:43;;;;;;;5.78;2.17;;;23.50;99.90;;;;;;5077507;28;20645;-66
2023/09/29 10:54:09;;;;;;;4.68;1.90;;;23.30;99.90;;;;;;5058292;28;20047;-64
2023/09/29 10:56:36;;;;;;;3.58;2.25;;;23.10;99.90;;;;;;5059990;28;20498;-66
2023/09/29 10:59:07;;;;;;;3.47;2.00;;;22.90;99.90;;;;;;5059790;28;20110;-67
2023/09/29 11:01:36;;;;;;;5.07;2.00;;;22.60;99.90;;;;;;5035385;28;20052;-65
2023/09/29 11:04:03;;;;;;;4.05;2.00;;;22.50;99.90;;;;;;5077415;28;20043;-65
2023/09/29 11:06:29;;;;;;;4.80;1.77;;;22.40;99.90;;;;;;5060473;28;20027;-65
2023/09/29 11:08:59;;;;;;;3.65;1.65;;;22.40;99.90;;;;;;5078043;28;20035;-65
2023/09/29 11:11:26;;;;;;;4.03;2.03;;;22.40;99.90;;;;;;5076989;28;20031;-68
2023/09/29 11:13:58;;;;;;;5.75;1.80;;;22.50;99.90;;;;;;5076848;28;20485;-66
2023/09/29 11:16:27;;;;;;;3.47;1.70;;;22.60;99.90;;;;;;5076733;28;20138;-65
2023/09/29 11:19:05;;;;;;;5.60;1.85;;;22.70;99.90;;;;;;5076518;28;20033;-65
2023/09/29 11:21:35;;;;;;;8.43;2.00;;;22.80;99.90;;;;;;5076349;28;20037;-67
2023/09/29 11:24:11;;;;;;;5.97;2.00;;;22.90;99.90;;;;;;5076381;28;20035;-65
2023/09/29 11:26:48;;;;;;;8.43;2.42;;;23.00;99.90;;;;;;5076272;28;20040;-65
2023/09/29 11:29:25;;;;;;;5.38;2.45;;;23.00;99.90;;;;;;5078611;28;20076;-66
2023/09/29 11:31:51;;;;;;;8.13;3.22;;;23.10;99.90;;;;;;5077290;28;20037;-65
2023/09/29 11:34:17;;;;;;;7.18;3.05;;;23.10;99.90;;;;;;5077685;28;20032;-63
2023/09/29 11:36:43;;;;;;;8.20;3.20;;;23.20;99.90;;;;;;5075796;28;20036;-65
2023/09/29 11:39:10;;;;;;;11.35;3.38;;;23.40;99.90;;;;;;5074392;28;20016;-64
2023/09/29 11:41:36;;;;;;;15.65;5.07;;;23.60;99.90;;;;;;5077449;28;20032;-65
2023/09/29 11:44:01;;;;;;;9.20;3.67;;;23.70;99.90;;;;;;5075688;28;20028;-65
2023/09/29 11:46:27;;;;;;;10.70;4.53;;;23.90;99.90;;;;;;5076306;28;20032;-66
2023/09/29 11:48:54;;;;;;;10.45;4.22;;;24.00;99.90;;;;;;5075702;28;20059;-65
2023/09/29 11:51:20;;;;;;;14.98;5.50;;;24.10;99.90;;;;;;5073600;28;20112;-67
2023/09/29 11:53:47;;;;;;;13.70;5.40;;;24.10;99.90;;;;;;5074990;28;20033;-65
2023/09/29 11:56:13;;;;;;;13.80;4.85;;;23.90;99.90;;;;;;5078275;28;20041;-65
2023/09/29 11:58:39;;;;;;;13.50;5.10;;;23.70;99.90;;;;;;5075972;28;20138;-67
2023/09/29 12:01:06;;;;;;;14.05;5.07;;;23.60;99.90;;;;;;5076592;28;20042;-65
2023/09/29 12:03:33;;;;;;;15.77;6.00;;;23.60;99.90;;;;;;5078296;28;20124;-65
2023/09/29 12:05:59;;;;;;;16.02;5.97;;;23.60;99.90;;;;;;5076427;28;20032;-65
2023/09/29 12:08:25;;;;;;;15.55;5.88;;;23.60;99.90;;;;;;5074336;28;20017;-64
2023/09/29 12:10:50;;;;;;;18.08;6.88;;;23.70;99.90;;;;;;5075849;28;20515;-66
2023/09/29 12:13:16;;;;;;;15.60;5.88;;;23.60;99.90;;;;;;5076010;28;20112;-66
2023/09/29 12:15:43;;;;;;;16.25;5.50;;;23.50;99.90;;;;;;5074070;28;20032;-66
2023/09/29 12:18:09;;;;;;;18.83;7.07;;;23.60;99.90;;;;;;5076046;28;20453;-59
2023/09/29 12:20:35;;;;;;;18.45;6.53;;;23.70;99.90;;;;;;5075523;28;20020;-64
2023/09/29 12:23:01;;;;;;;23.00;7.50;;;23.80;99.90;;;;;;5073737;28;20585;-65
2023/09/29 12:25:27;;;;;;;20.02;7.82;;;23.90;99.90;;;;;;5074360;28;20029;-65
2023/09/29 12:27:53;;;;;;;19.55;8.40;;;24.00;99.90;;;;;;5074829;28;20020;-65
2023/09/29 12:30:21;;;;;;;25.48;8.20;;;23.90;99.20;;;;;;5075883;28;20607;-65
2023/09/29 12:32:47;;;;;;;24.95;7.43;;;23.90;99.90;;;;;;5058837;28;20036;-64
2023/09/29 12:35:13;;;;;;;21.85;8.30;;;23.90;99.90;;;;;;5076567;28;20496;-64
2023/09/29 12:37:39;;;;;;;24.73;9.02;;;23.90;99.90;;;;;;5073135;28;20032;-66
2023/09/29 12:40:09;;;;;;;20.30;7.38;;;24.10;99.80;;;;;;5076360;28;20110;-66
2023/09/29 12:42:35;;;;;;;21.70;7.60;;;24.10;98.50;;;;;;5071660;28;20032;-66
2023/09/29 12:45:02;;;;;;;17.25;7.65;;;24.20;97.60;;;;;;5072201;28;20071;-67
2023/09/29 12:47:27;;;;;;;17.65;7.13;;;24.30;97.90;;;;;;5074242;28;20024;-66